sensor_id;sensor_type;location;lat;lon;timestamp;P1;durP1;ratioP1;P2;durP2;ratioP2
9052;SDS011;4561;47.450;7.516;2023-05-10T00:01:23;0.70;;;0.47;;
9052;SDS011;4561;47.450;7.516;2023-05-10T00:04:44;0.57;;;0.53;;
9052;SDS011;4561;47.450;7.516;2023-05-10T00:08:06;0.50;;;0.50;;
9052;SDS011;4561;47.450;7.516;2023-05-10T00:11:29;0.87;;;0.60;;
9052;SDS011;4561;47.450;7.516;2023-05-10T00:14:51;2.17;;;0.67;;
9052;SDS011;4561;47.450;7.516;2023-05-10T00:18:14;1.03;;;0.73;;
9052;SDS011;4561;47.450;7.516;2023-05-10T00:21:34;4.30;;;0.73;;
9052;SDS011;4561;47.450;7.516;2023-05-10T00:24:59;1.27;;;0.60;;
9052;SDS011;4561;47.450;7.516;2023-05-10T00:28:22;3.07;;;0.60;;
9052;SDS011;4561;47.450;7.516;2023-05-10T00:31:45;0.47;;;0.47;;
9052;SDS011;4561;47.450;7.516;2023-05-10T00:35:05;1.90;;;0.50;;
9052;SDS011;4561;47.450;7.516;2023-05-10T00:38:28;0.83;;;0.50;;
9052;SDS011;4561;47.450;7.516;2023-05-10T00:41:51;0.67;;;0.50;;
9052;SDS011;4561;47.450;7.516;2023-05-10T00:45:11;0.90;;;0.90;;
9052;SDS011;4561;47.450;7.516;2023-05-10T00:48:34;0.50;;;0.50;;
9052;SDS011;4561;47.450;7.516;2023-05-10T00:51:56;2.33;;;0.60;;
9052;SDS011;4561;47.450;7.516;2023-05-10T00:55:17;0.90;;;0.40;;
9052;SDS011;4561;47.450;7.516;2023-05-10T00:58:39;0.40;;;0.40;;
9052;SDS011;4561;47.450;7.516;2023-05-10T01:02:00;5.27;;;1.00;;
9052;SDS011;4561;47.450;7.516;2023-05-10T01:05:20;0.93;;;0.73;;
9052;SDS011;4561;47.450;7.516;2023-05-10T01:08:41;1.83;;;0.80;;
9052;SDS011;4561;47.450;7.516;2023-05-10T01:12:01;0.67;;;0.67;;
9052;SDS011;4561;47.450;7.516;2023-05-10T01:15:22;4.00;;;0.60;;
9052;SDS011;4561;47.450;7.516;2023-05-10T01:18:43;3.17;;;0.80;;
9052;SDS011;4561;47.450;7.516;2023-05-10T01:22:25;0.50;;;0.50;;
9052;SDS011;4561;47.450;7.516;2023-05-10T01:26:14;1.23;;;0.70;;
9052;SDS011;4561;47.450;7.516;2023-05-10T01:33:19;3.93;;;0.70;;
9052;SDS011;4561;47.450;7.516;2023-05-10T01:36:59;4.83;;;0.87;;
9052;SDS011;4561;47.450;7.516;2023-05-10T01:40:28;2.67;;;0.90;;
9052;SDS011;4561;47.450;7.516;2023-05-10T01:47:32;1.27;;;0.80;;
9052;SDS011;4561;47.450;7.516;2023-05-10T01:50:55;4.83;;;0.90;;
9052;SDS011;4561;47.450;7.516;2023-05-10T01:54:19;2.13;;;0.90;;
9052;SDS011;4561;47.450;7.516;2023-05-10T01:57:45;1.87;;;0.57;;
9052;SDS011;4561;47.450;7.516;2023-05-10T02:01:12;1.90;;;0.60;;
9052;SDS011;4561;47.450;7.516;2023-05-10T02:04:35;1.80;;;0.60;;
9052;SDS011;4561;47.450;7.516;2023-05-10T02:07:57;0.73;;;0.60;;
9052;SDS011;4561;47.450;7.516;2023-05-10T02:11:21;0.77;;;0.70;;
9052;SDS011;4561;47.450;7.516;2023-05-10T02:14:43;2.00;;;0.80;;
9052;SDS011;4561;47.450;7.516;2023-05-10T02:18:05;1.60;;;0.70;;
9052;SDS011;4561;47.450;7.516;2023-05-10T02:21:25;2.47;;;0.67;;
9052;SDS011;4561;47.450;7.516;2023-05-10T02:24:47;1.07;;;0.50;;
9052;SDS011;4561;47.450;7.516;2023-05-10T02:28:07;1.00;;;0.73;;
9052;SDS011;4561;47.450;7.516;2023-05-10T02:31:31;1.73;;;0.83;;
9052;SDS011;4561;47.450;7.516;2023-05-10T02:34:53;1.57;;;0.70;;
9052;SDS011;4561;47.450;7.516;2023-05-10T02:38:14;0.63;;;0.53;;
9052;SDS011;4561;47.450;7.516;2023-05-10T02:41:35;0.80;;;0.80;;
9052;SDS011;4561;47.450;7.516;2023-05-10T02:45:03;4.40;;;0.60;;
9052;SDS011;4561;47.450;7.516;2023-05-10T02:48:27;1.23;;;0.57;;
9052;SDS011;4561;47.450;7.516;2023-05-10T02:51:49;1.53;;;0.87;;
9052;SDS011;4561;47.450;7.516;2023-05-10T02:55:15;1.27;;;0.50;;
9052;SDS011;4561;47.450;7.516;2023-05-10T02:58:36;1.50;;;0.97;;
9052;SDS011;4561;47.450;7.516;2023-05-10T03:01:57;0.90;;;0.80;;
9052;SDS011;4561;47.450;7.516;2023-05-10T03:05:17;1.43;;;0.77;;
9052;SDS011;4561;47.450;7.516;2023-05-10T03:08:38;1.20;;;0.60;;
9052;SDS011;4561;47.450;7.516;2023-05-10T03:12:07;2.20;;;0.63;;
9052;SDS011;4561;47.450;7.516;2023-05-10T03:19:17;3.90;;;0.80;;
9052;SDS011;4561;47.450;7.516;2023-05-10T03:22:54;0.60;;;0.57;;
9052;SDS011;4561;47.450;7.516;2023-05-10T03:26:20;3.17;;;0.80;;
9052;SDS011;4561;47.450;7.516;2023-05-10T03:29:45;1.00;;;0.60;;
9052;SDS011;4561;47.450;7.516;2023-05-10T03:33:06;0.43;;;0.43;;
9052;SDS011;4561;47.450;7.516;2023-05-10T03:36:26;1.03;;;0.60;;
9052;SDS011;4561;47.450;7.516;2023-05-10T03:39:47;1.03;;;0.53;;
9052;SDS011;4561;47.450;7.516;2023-05-10T03:43:07;0.93;;;0.43;;
9052;SDS011;4561;47.450;7.516;2023-05-10T03:46:28;1.07;;;0.50;;
9052;SDS011;4561;47.450;7.516;2023-05-10T03:49:50;2.13;;;0.90;;
9052;SDS011;4561;47.450;7.516;2023-05-10T03:53:11;1.33;;;0.60;;
9052;SDS011;4561;47.450;7.516;2023-05-10T03:56:32;0.87;;;0.70;;
9052;SDS011;4561;47.450;7.516;2023-05-10T03:59:52;1.17;;;0.80;;
9052;SDS011;4561;47.450;7.516;2023-05-10T04:03:13;1.90;;;0.60;;
9052;SDS011;4561;47.450;7.516;2023-05-10T04:06:33;1.03;;;0.70;;
9052;SDS011;4561;47.450;7.516;2023-05-10T04:09:53;2.30;;;0.80;;
9052;SDS011;4561;47.450;7.516;2023-05-10T04:13:17;1.30;;;0.93;;
9052;SDS011;4561;47.450;7.516;2023-05-10T04:16:37;1.90;;;0.87;;
9052;SDS011;4561;47.450;7.516;2023-05-10T04:20:00;0.80;;;0.80;;
9052;SDS011;4561;47.450;7.516;2023-05-10T04:23:20;2.57;;;1.03;;
9052;SDS011;4561;47.450;7.516;2023-05-10T04:26:41;1.17;;;0.90;;
9052;SDS011;4561;47.450;7.516;2023-05-10T04:30:02;0.70;;;0.70;;
9052;SDS011;4561;47.450;7.516;2023-05-10T04:33:23;4.03;;;1.20;;
9052;SDS011;4561;47.450;7.516;2023-05-10T04:36:44;1.07;;;0.70;;
9052;SDS011;4561;47.450;7.516;2023-05-10T04:40:04;2.20;;;0.90;;
9052;SDS011;4561;47.450;7.516;2023-05-10T04:43:27;3.93;;;1.10;;
9052;SDS011;4561;47.450;7.516;2023-05-10T04:46:48;2.37;;;0.90;;
9052;SDS011;4561;47.450;7.516;2023-05-10T04:50:08;1.07;;;0.80;;
9052;SDS011;4561;47.450;7.516;2023-05-10T04:53:31;1.53;;;0.63;;
9052;SDS011;4561;47.450;7.516;2023-05-10T04:56:52;1.53;;;1.00;;
9052;SDS011;4561;47.450;7.516;2023-05-10T05:00:12;1.27;;;0.80;;
9052;SDS011;4561;47.450;7.516;2023-05-10T05:03:37;1.20;;;0.77;;
9052;SDS011;4561;47.450;7.516;2023-05-10T05:07:00;2.60;;;1.40;;
9052;SDS011;4561;47.450;7.516;2023-05-10T05:10:20;1.57;;;0.90;;
9052;SDS011;4561;47.450;7.516;2023-05-10T05:13:41;1.00;;;0.70;;
9052;SDS011;4561;47.450;7.516;2023-05-10T05:17:03;2.23;;;1.00;;
9052;SDS011;4561;47.450;7.516;2023-05-10T05:20:23;2.00;;;1.03;;
9052;SDS011;4561;47.450;7.516;2023-05-10T05:23:44;5.10;;;1.10;;
9052;SDS011;4561;47.450;7.516;2023-05-10T05:27:05;4.20;;;1.10;;
9052;SDS011;4561;47.450;7.516;2023-05-10T05:30:26;3.03;;;1.23;;
9052;SDS011;4561;47.450;7.516;2023-05-10T05:33:51;1.47;;;0.83;;
9052;SDS011;4561;47.450;7.516;2023-05-10T05:37:14;4.63;;;1.00;;
9052;SDS011;4561;47.450;7.516;2023-05-10T05:40:40;2.50;;;1.20;;
9052;SDS011;4561;47.450;7.516;2023-05-10T05:44:05;3.40;;;1.60;;
9052;SDS011;4561;47.450;7.516;2023-05-10T05:47:26;2.93;;;1.50;;
9052;SDS011;4561;47.450;7.516;2023-05-10T05:50:46;2.23;;;1.33;;
9052;SDS011;4561;47.450;7.516;2023-05-10T05:54:10;2.03;;;1.00;;
9052;SDS011;4561;47.450;7.516;2023-05-10T05:57:30;4.47;;;1.57;;
9052;SDS011;4561;47.450;7.516;2023-05-10T06:00:51;5.87;;;1.70;;
9052;SDS011;4561;47.450;7.516;2023-05-10T06:04:16;3.93;;;1.30;;
9052;SDS011;4561;47.450;7.516;2023-05-10T06:07:37;2.63;;;1.40;;
9052;SDS011;4561;47.450;7.516;2023-05-10T06:10:57;3.53;;;1.20;;
9052;SDS011;4561;47.450;7.516;2023-05-10T06:14:20;1.97;;;1.40;;
9052;SDS011;4561;47.450;7.516;2023-05-10T06:17:43;2.00;;;1.20;;
9052;SDS011;4561;47.450;7.516;2023-05-10T06:21:04;2.77;;;1.17;;
9052;SDS011;4561;47.450;7.516;2023-05-10T06:24:24;3.10;;;1.40;;
9052;SDS011;4561;47.450;7.516;2023-05-10T06:27:47;4.27;;;1.30;;
9052;SDS011;4561;47.450;7.516;2023-05-10T06:31:07;1.97;;;1.23;;
9052;SDS011;4561;47.450;7.516;2023-05-10T06:34:28;3.40;;;1.00;;
9052;SDS011;4561;47.450;7.516;2023-05-10T06:37:49;4.07;;;1.20;;
9052;SDS011;4561;47.450;7.516;2023-05-10T06:41:09;2.23;;;1.30;;
9052;SDS011;4561;47.450;7.516;2023-05-10T06:44:32;2.97;;;1.20;;
9052;SDS011;4561;47.450;7.516;2023-05-10T06:47:53;2.67;;;1.23;;
9052;SDS011;4561;47.450;7.516;2023-05-10T06:51:15;1.57;;;1.10;;
9052;SDS011;4561;47.450;7.516;2023-05-10T06:54:36;2.17;;;1.33;;
9052;SDS011;4561;47.450;7.516;2023-05-10T06:57:59;3.43;;;1.53;;
9052;SDS011;4561;47.450;7.516;2023-05-10T07:01:20;2.37;;;1.33;;
9052;SDS011;4561;47.450;7.516;2023-05-10T07:04:40;2.67;;;1.13;;
9052;SDS011;4561;47.450;7.516;2023-05-10T07:08:05;5.10;;;1.33;;
9052;SDS011;4561;47.450;7.516;2023-05-10T07:11:28;1.70;;;1.07;;
9052;SDS011;4561;47.450;7.516;2023-05-10T07:14:48;4.60;;;1.27;;
9052;SDS011;4561;47.450;7.516;2023-05-10T07:18:09;3.40;;;1.40;;
9052;SDS011;4561;47.450;7.516;2023-05-10T07:21:32;5.13;;;1.30;;
9052;SDS011;4561;47.450;7.516;2023-05-10T07:24:55;5.97;;;1.40;;
9052;SDS011;4561;47.450;7.516;2023-05-10T07:28:15;4.73;;;1.50;;
9052;SDS011;4561;47.450;7.516;2023-05-10T07:31:39;3.33;;;1.37;;
9052;SDS011;4561;47.450;7.516;2023-05-10T07:35:01;3.77;;;1.20;;
9052;SDS011;4561;47.450;7.516;2023-05-10T07:38:22;3.30;;;1.17;;
9052;SDS011;4561;47.450;7.516;2023-05-10T07:41:43;4.10;;;1.50;;
9052;SDS011;4561;47.450;7.516;2023-05-10T07:45:03;3.90;;;1.00;;
9052;SDS011;4561;47.450;7.516;2023-05-10T07:48:26;3.33;;;1.00;;
9052;SDS011;4561;47.450;7.516;2023-05-10T07:51:49;3.20;;;1.37;;
9052;SDS011;4561;47.450;7.516;2023-05-10T07:55:10;3.83;;;1.43;;
9052;SDS011;4561;47.450;7.516;2023-05-10T07:58:30;5.67;;;1.30;;
9052;SDS011;4561;47.450;7.516;2023-05-10T08:01:53;2.43;;;1.27;;
9052;SDS011;4561;47.450;7.516;2023-05-10T08:05:14;1.23;;;0.90;;
9052;SDS011;4561;47.450;7.516;2023-05-10T08:08:37;3.60;;;1.13;;
9052;SDS011;4561;47.450;7.516;2023-05-10T08:11:57;2.13;;;0.97;;
9052;SDS011;4561;47.450;7.516;2023-05-10T08:15:19;4.17;;;1.10;;
9052;SDS011;4561;47.450;7.516;2023-05-10T08:18:39;1.83;;;1.10;;
9052;SDS011;4561;47.450;7.516;2023-05-10T08:22:02;4.70;;;1.13;;
9052;SDS011;4561;47.450;7.516;2023-05-10T08:25:22;2.37;;;1.03;;
9052;SDS011;4561;47.450;7.516;2023-05-10T08:28:46;2.97;;;1.00;;
9052;SDS011;4561;47.450;7.516;2023-05-10T08:32:06;2.03;;;0.87;;
9052;SDS011;4561;47.450;7.516;2023-05-10T08:35:27;2.40;;;1.20;;
9052;SDS011;4561;47.450;7.516;2023-05-10T08:38:49;2.00;;;0.97;;
9052;SDS011;4561;47.450;7.516;2023-05-10T08:42:13;1.97;;;0.90;;
9052;SDS011;4561;47.450;7.516;2023-05-10T08:45:40;3.13;;;1.10;;
9052;SDS011;4561;47.450;7.516;2023-05-10T08:49:07;1.63;;;1.00;;
9052;SDS011;4561;47.450;7.516;2023-05-10T08:52:28;3.50;;;1.27;;
9052;SDS011;4561;47.450;7.516;2023-05-10T08:55:50;2.53;;;1.20;;
9052;SDS011;4561;47.450;7.516;2023-05-10T08:59:10;3.57;;;1.07;;
9052;SDS011;4561;47.450;7.516;2023-05-10T09:02:34;1.87;;;1.10;;
9052;SDS011;4561;47.450;7.516;2023-05-10T09:05:57;3.00;;;1.30;;
9052;SDS011;4561;47.450;7.516;2023-05-10T09:09:18;2.97;;;1.20;;
9052;SDS011;4561;47.450;7.516;2023-05-10T09:12:40;4.07;;;1.17;;
9052;SDS011;4561;47.450;7.516;2023-05-10T09:16:04;4.17;;;1.17;;
9052;SDS011;4561;47.450;7.516;2023-05-10T09:19:24;4.40;;;1.33;;
9052;SDS011;4561;47.450;7.516;2023-05-10T09:22:48;4.97;;;1.10;;
9052;SDS011;4561;47.450;7.516;2023-05-10T09:26:11;2.87;;;1.27;;
9052;SDS011;4561;47.450;7.516;2023-05-10T09:29:41;2.73;;;0.97;;
9052;SDS011;4561;47.450;7.516;2023-05-10T09:33:02;3.63;;;0.90;;
9052;SDS011;4561;47.450;7.516;2023-05-10T09:36:23;1.70;;;1.13;;
9052;SDS011;4561;47.450;7.516;2023-05-10T09:39:43;3.97;;;1.43;;
9052;SDS011;4561;47.450;7.516;2023-05-10T09:43:05;3.53;;;1.07;;
9052;SDS011;4561;47.450;7.516;2023-05-10T09:46:29;4.47;;;1.20;;
9052;SDS011;4561;47.450;7.516;2023-05-10T09:49:49;2.70;;;1.00;;
9052;SDS011;4561;47.450;7.516;2023-05-10T09:53:15;2.17;;;1.00;;
9052;SDS011;4561;47.450;7.516;2023-05-10T09:56:36;4.90;;;1.60;;
9052;SDS011;4561;47.450;7.516;2023-05-10T10:00:00;2.50;;;0.90;;
9052;SDS011;4561;47.450;7.516;2023-05-10T10:03:25;2.27;;;0.93;;
9052;SDS011;4561;47.450;7.516;2023-05-10T10:06:45;4.63;;;1.10;;
9052;SDS011;4561;47.450;7.516;2023-05-10T10:10:06;1.87;;;1.00;;
9052;SDS011;4561;47.450;7.516;2023-05-10T10:13:31;3.70;;;1.20;;
9052;SDS011;4561;47.450;7.516;2023-05-10T10:16:52;2.53;;;1.17;;
9052;SDS011;4561;47.450;7.516;2023-05-10T10:20:14;4.27;;;1.03;;
9052;SDS011;4561;47.450;7.516;2023-05-10T10:23:35;5.23;;;1.10;;
9052;SDS011;4561;47.450;7.516;2023-05-10T10:26:57;2.67;;;1.10;;
9052;SDS011;4561;47.450;7.516;2023-05-10T10:34:05;3.23;;;0.80;;
9052;SDS011;4561;47.450;7.516;2023-05-10T10:37:47;3.73;;;1.00;;
9052;SDS011;4561;47.450;7.516;2023-05-10T10:41:10;3.00;;;1.03;;
9052;SDS011;4561;47.450;7.516;2023-05-10T10:44:37;3.97;;;1.13;;
9052;SDS011;4561;47.450;7.516;2023-05-10T10:52:12;2.50;;;1.23;;
9052;SDS011;4561;47.450;7.516;2023-05-10T10:55:46;5.33;;;1.27;;
9052;SDS011;4561;47.450;7.516;2023-05-10T10:59:08;3.50;;;1.30;;
9052;SDS011;4561;47.450;7.516;2023-05-10T11:06:00;3.27;;;1.43;;
9052;SDS011;4561;47.450;7.516;2023-05-10T11:09:21;5.63;;;1.07;;
9052;SDS011;4561;47.450;7.516;2023-05-10T11:13:21;2.80;;;1.40;;
9052;SDS011;4561;47.450;7.516;2023-05-10T11:16:40;5.27;;;1.43;;
9052;SDS011;4561;47.450;7.516;2023-05-10T11:20:09;3.60;;;1.20;;
9052;SDS011;4561;47.450;7.516;2023-05-10T11:23:31;2.60;;;1.03;;
9052;SDS011;4561;47.450;7.516;2023-05-10T11:26:52;2.50;;;1.17;;
9052;SDS011;4561;47.450;7.516;2023-05-10T11:30:13;2.03;;;1.13;;
9052;SDS011;4561;47.450;7.516;2023-05-10T11:37:04;2.93;;;0.83;;
9052;SDS011;4561;47.450;7.516;2023-05-10T11:40:25;2.30;;;0.70;;
9052;SDS011;4561;47.450;7.516;2023-05-10T11:43:46;4.27;;;1.10;;
9052;SDS011;4561;47.450;7.516;2023-05-10T11:47:08;1.97;;;0.90;;
9052;SDS011;4561;47.450;7.516;2023-05-10T11:50:29;2.30;;;0.80;;
9052;SDS011;4561;47.450;7.516;2023-05-10T11:53:50;4.87;;;1.07;;
9052;SDS011;4561;47.450;7.516;2023-05-10T11:57:17;3.23;;;1.20;;
9052;SDS011;4561;47.450;7.516;2023-05-10T12:00:38;3.07;;;0.90;;
9052;SDS011;4561;47.450;7.516;2023-05-10T12:03:59;2.13;;;0.93;;
9052;SDS011;4561;47.450;7.516;2023-05-10T12:07:20;3.07;;;1.00;;
9052;SDS011;4561;47.450;7.516;2023-05-10T12:10:41;3.27;;;0.80;;
9052;SDS011;4561;47.450;7.516;2023-05-10T12:14:03;5.43;;;1.20;;
9052;SDS011;4561;47.450;7.516;2023-05-10T12:17:27;5.80;;;1.40;;
9052;SDS011;4561;47.450;7.516;2023-05-10T12:20:52;3.87;;;0.90;;
9052;SDS011;4561;47.450;7.516;2023-05-10T12:24:13;1.47;;;0.80;;
9052;SDS011;4561;47.450;7.516;2023-05-10T12:27:36;3.97;;;1.40;;
9052;SDS011;4561;47.450;7.516;2023-05-10T12:30:59;4.73;;;0.93;;
9052;SDS011;4561;47.450;7.516;2023-05-10T12:34:23;1.33;;;0.70;;
9052;SDS011;4561;47.450;7.516;2023-05-10T12:37:52;1.63;;;0.70;;
9052;SDS011;4561;47.450;7.516;2023-05-10T12:41:16;3.17;;;0.87;;
9052;SDS011;4561;47.450;7.516;2023-05-10T12:44:39;1.67;;;0.67;;
9052;SDS011;4561;47.450;7.516;2023-05-10T12:47:59;1.97;;;0.77;;
9052;SDS011;4561;47.450;7.516;2023-05-10T12:51:22;2.63;;;0.60;;
9052;SDS011;4561;47.450;7.516;2023-05-10T12:54:42;2.07;;;0.77;;
9052;SDS011;4561;47.450;7.516;2023-05-10T12:58:05;2.30;;;0.70;;
9052;SDS011;4561;47.450;7.516;2023-05-10T13:01:25;4.27;;;0.80;;
9052;SDS011;4561;47.450;7.516;2023-05-10T13:04:46;2.40;;;0.77;;
9052;SDS011;4561;47.450;7.516;2023-05-10T13:08:07;1.70;;;0.70;;
9052;SDS011;4561;47.450;7.516;2023-05-10T13:11:27;2.37;;;0.80;;
9052;SDS011;4561;47.450;7.516;2023-05-10T13:14:49;3.27;;;0.70;;
9052;SDS011;4561;47.450;7.516;2023-05-10T13:18:10;4.33;;;1.20;;
9052;SDS011;4561;47.450;7.516;2023-05-10T13:21:35;2.20;;;0.60;;
9052;SDS011;4561;47.450;7.516;2023-05-10T13:24:55;1.20;;;0.60;;
9052;SDS011;4561;47.450;7.516;2023-05-10T13:28:16;2.03;;;0.80;;
9052;SDS011;4561;47.450;7.516;2023-05-10T13:31:36;1.10;;;0.63;;
9052;SDS011;4561;47.450;7.516;2023-05-10T13:35:00;1.87;;;0.83;;
9052;SDS011;4561;47.450;7.516;2023-05-10T13:38:20;2.47;;;0.53;;
9052;SDS011;4561;47.450;7.516;2023-05-10T13:41:43;1.10;;;0.40;;
9052;SDS011;4561;47.450;7.516;2023-05-10T13:45:06;1.47;;;0.60;;
9052;SDS011;4561;47.450;7.516;2023-05-10T13:48:29;1.50;;;0.60;;
9052;SDS011;4561;47.450;7.516;2023-05-10T13:51:50;1.03;;;0.50;;
9052;SDS011;4561;47.450;7.516;2023-05-10T13:55:10;0.40;;;0.40;;
9052;SDS011;4561;47.450;7.516;2023-05-10T13:58:33;1.50;;;0.63;;
9052;SDS011;4561;47.450;7.516;2023-05-10T14:01:54;0.37;;;0.30;;
9052;SDS011;4561;47.450;7.516;2023-05-10T14:05:15;0.73;;;0.60;;
9052;SDS011;4561;47.450;7.516;2023-05-10T14:08:41;1.43;;;0.47;;
9052;SDS011;4561;47.450;7.516;2023-05-10T14:12:01;0.50;;;0.40;;
9052;SDS011;4561;47.450;7.516;2023-05-10T14:15:22;1.40;;;0.57;;
9052;SDS011;4561;47.450;7.516;2023-05-10T14:18:46;4.20;;;0.70;;
9052;SDS011;4561;47.450;7.516;2023-05-10T14:22:06;1.43;;;0.57;;
9052;SDS011;4561;47.450;7.516;2023-05-10T14:25:26;0.93;;;0.50;;
9052;SDS011;4561;47.450;7.516;2023-05-10T14:28:50;1.97;;;0.50;;
9052;SDS011;4561;47.450;7.516;2023-05-10T14:32:11;3.00;;;0.60;;
9052;SDS011;4561;47.450;7.516;2023-05-10T14:35:31;0.50;;;0.50;;
9052;SDS011;4561;47.450;7.516;2023-05-10T14:38:52;1.63;;;0.60;;
9052;SDS011;4561;47.450;7.516;2023-05-10T14:42:15;0.93;;;0.60;;
9052;SDS011;4561;47.450;7.516;2023-05-10T14:45:36;1.43;;;0.40;;
9052;SDS011;4561;47.450;7.516;2023-05-10T14:48:56;0.60;;;0.43;;
9052;SDS011;4561;47.450;7.516;2023-05-10T14:52:16;1.17;;;0.40;;
9052;SDS011;4561;47.450;7.516;2023-05-10T14:55:37;2.60;;;0.70;;
9052;SDS011;4561;47.450;7.516;2023-05-10T14:58:58;1.23;;;0.60;;
9052;SDS011;4561;47.450;7.516;2023-05-10T15:02:19;1.13;;;0.73;;
9052;SDS011;4561;47.450;7.516;2023-05-10T15:05:41;1.90;;;0.70;;
9052;SDS011;4561;47.450;7.516;2023-05-10T15:09:02;2.67;;;0.47;;
9052;SDS011;4561;47.450;7.516;2023-05-10T15:12:23;1.00;;;0.40;;
9052;SDS011;4561;47.450;7.516;2023-05-10T15:15:43;4.40;;;0.53;;
9052;SDS011;4561;47.450;7.516;2023-05-10T15:19:06;1.70;;;0.53;;
9052;SDS011;4561;47.450;7.516;2023-05-10T15:22:26;0.63;;;0.50;;
9052;SDS011;4561;47.450;7.516;2023-05-10T15:25:48;1.73;;;0.50;;
9052;SDS011;4561;47.450;7.516;2023-05-10T15:29:10;0.63;;;0.40;;
9052;SDS011;4561;47.450;7.516;2023-05-10T15:32:30;1.00;;;0.63;;
9052;SDS011;4561;47.450;7.516;2023-05-10T15:35:50;0.97;;;0.40;;
9052;SDS011;4561;47.450;7.516;2023-05-10T15:39:11;1.63;;;0.40;;
9052;SDS011;4561;47.450;7.516;2023-05-10T15:42:31;0.83;;;0.40;;
9052;SDS011;4561;47.450;7.516;2023-05-10T15:45:52;1.03;;;0.30;;
9052;SDS011;4561;47.450;7.516;2023-05-10T15:49:12;0.33;;;0.30;;
9052;SDS011;4561;47.450;7.516;2023-05-10T15:52:36;2.10;;;0.50;;
9052;SDS011;4561;47.450;7.516;2023-05-10T15:55:56;2.03;;;0.40;;
9052;SDS011;4561;47.450;7.516;2023-05-10T15:59:17;0.83;;;0.40;;
9052;SDS011;4561;47.450;7.516;2023-05-10T16:02:40;2.73;;;0.30;;
9052;SDS011;4561;47.450;7.516;2023-05-10T16:06:02;0.63;;;0.40;;
9052;SDS011;4561;47.450;7.516;2023-05-10T16:09:22;1.43;;;0.40;;
9052;SDS011;4561;47.450;7.516;2023-05-10T16:12:43;0.40;;;0.40;;
9052;SDS011;4561;47.450;7.516;2023-05-10T16:16:06;0.93;;;0.40;;
9052;SDS011;4561;47.450;7.516;2023-05-10T16:19:28;1.73;;;1.13;;
9052;SDS011;4561;47.450;7.516;2023-05-10T16:22:49;1.30;;;0.50;;
9052;SDS011;4561;47.450;7.516;2023-05-10T16:26:09;0.83;;;0.40;;
9052;SDS011;4561;47.450;7.516;2023-05-10T16:29:33;1.13;;;0.33;;
9052;SDS011;4561;47.450;7.516;2023-05-10T16:32:54;0.87;;;0.37;;
9052;SDS011;4561;47.450;7.516;2023-05-10T16:36:17;0.40;;;0.40;;
9052;SDS011;4561;47.450;7.516;2023-05-10T16:39:37;0.30;;;0.30;;
9052;SDS011;4561;47.450;7.516;2023-05-10T16:43:00;0.63;;;0.30;;
9052;SDS011;4561;47.450;7.516;2023-05-10T16:46:20;0.97;;;0.30;;
9052;SDS011;4561;47.450;7.516;2023-05-10T16:49:40;0.70;;;0.40;;
9052;SDS011;4561;47.450;7.516;2023-05-10T16:53:03;0.40;;;0.40;;
9052;SDS011;4561;47.450;7.516;2023-05-10T16:56:23;1.23;;;0.40;;
9052;SDS011;4561;47.450;7.516;2023-05-10T16:59:44;1.23;;;0.37;;
9052;SDS011;4561;47.450;7.516;2023-05-10T17:03:04;0.33;;;0.33;;
9052;SDS011;4561;47.450;7.516;2023-05-10T17:06:25;0.80;;;0.40;;
9052;SDS011;4561;47.450;7.516;2023-05-10T17:09:47;1.80;;;0.70;;
9052;SDS011;4561;47.450;7.516;2023-05-10T17:13:08;1.93;;;0.70;;
9052;SDS011;4561;47.450;7.516;2023-05-10T17:16:28;0.50;;;0.50;;
9052;SDS011;4561;47.450;7.516;2023-05-10T17:19:49;1.77;;;0.80;;
9052;SDS011;4561;47.450;7.516;2023-05-10T17:23:10;0.50;;;0.30;;
9052;SDS011;4561;47.450;7.516;2023-05-10T17:26:30;2.00;;;0.80;;
9052;SDS011;4561;47.450;7.516;2023-05-10T17:29:54;3.20;;;0.60;;
9052;SDS011;4561;47.450;7.516;2023-05-10T17:33:17;0.87;;;0.60;;
9052;SDS011;4561;47.450;7.516;2023-05-10T17:36:40;1.43;;;1.00;;
9052;SDS011;4561;47.450;7.516;2023-05-10T17:40:01;2.57;;;0.50;;
9052;SDS011;4561;47.450;7.516;2023-05-10T17:43:23;0.70;;;0.50;;
9052;SDS011;4561;47.450;7.516;2023-05-10T17:46:45;0.43;;;0.43;;
9052;SDS011;4561;47.450;7.516;2023-05-10T17:50:05;0.53;;;0.50;;
9052;SDS011;4561;47.450;7.516;2023-05-10T17:53:26;0.57;;;0.50;;
9052;SDS011;4561;47.450;7.516;2023-05-10T17:56:51;1.07;;;0.50;;
9052;SDS011;4561;47.450;7.516;2023-05-10T18:00:11;1.13;;;0.57;;
9052;SDS011;4561;47.450;7.516;2023-05-10T18:03:35;0.80;;;0.50;;
9052;SDS011;4561;47.450;7.516;2023-05-10T18:06:55;0.50;;;0.50;;
9052;SDS011;4561;47.450;7.516;2023-05-10T18:10:20;2.30;;;0.50;;
9052;SDS011;4561;47.450;7.516;2023-05-10T18:13:40;1.90;;;0.60;;
9052;SDS011;4561;47.450;7.516;2023-05-10T18:17:01;0.83;;;0.67;;
9052;SDS011;4561;47.450;7.516;2023-05-10T18:20:23;1.10;;;0.70;;
9052;SDS011;4561;47.450;7.516;2023-05-10T18:23:47;1.63;;;0.77;;
9052;SDS011;4561;47.450;7.516;2023-05-10T18:27:07;1.10;;;0.60;;
9052;SDS011;4561;47.450;7.516;2023-05-10T18:30:30;3.43;;;2.13;;
9052;SDS011;4561;47.450;7.516;2023-05-10T18:33:51;1.70;;;0.70;;
9052;SDS011;4561;47.450;7.516;2023-05-10T18:37:11;2.07;;;0.70;;
9052;SDS011;4561;47.450;7.516;2023-05-10T18:40:35;0.97;;;0.57;;
9052;SDS011;4561;47.450;7.516;2023-05-10T18:43:55;1.57;;;1.43;;
9052;SDS011;4561;47.450;7.516;2023-05-10T18:47:19;1.37;;;0.63;;
9052;SDS011;4561;47.450;7.516;2023-05-10T18:50:39;1.13;;;0.60;;
9052;SDS011;4561;47.450;7.516;2023-05-10T18:53:59;1.87;;;0.50;;
9052;SDS011;4561;47.450;7.516;2023-05-10T18:57:20;0.60;;;0.47;;
9052;SDS011;4561;47.450;7.516;2023-05-10T19:00:41;0.57;;;0.43;;
9052;SDS011;4561;47.450;7.516;2023-05-10T19:04:03;1.37;;;0.50;;
9052;SDS011;4561;47.450;7.516;2023-05-10T19:07:26;0.53;;;0.50;;
9052;SDS011;4561;47.450;7.516;2023-05-10T19:10:46;0.83;;;0.80;;
9052;SDS011;4561;47.450;7.516;2023-05-10T19:14:09;1.03;;;0.60;;
9052;SDS011;4561;47.450;7.516;2023-05-10T19:17:30;0.97;;;0.77;;
9052;SDS011;4561;47.450;7.516;2023-05-10T19:20:53;1.00;;;0.70;;
9052;SDS011;4561;47.450;7.516;2023-05-10T19:24:15;0.90;;;0.80;;
9052;SDS011;4561;47.450;7.516;2023-05-10T19:27:37;0.73;;;0.50;;
9052;SDS011;4561;47.450;7.516;2023-05-10T19:30:57;1.00;;;0.50;;
9052;SDS011;4561;47.450;7.516;2023-05-10T19:34:18;0.60;;;0.53;;
9052;SDS011;4561;47.450;7.516;2023-05-10T19:37:39;0.63;;;0.50;;
9052;SDS011;4561;47.450;7.516;2023-05-10T19:41:07;1.90;;;0.40;;
9052;SDS011;4561;47.450;7.516;2023-05-10T19:44:32;0.67;;;0.50;;
9052;SDS011;4561;47.450;7.516;2023-05-10T19:47:53;3.10;;;0.40;;
9052;SDS011;4561;47.450;7.516;2023-05-10T19:51:14;1.67;;;0.47;;
9052;SDS011;4561;47.450;7.516;2023-05-10T19:54:34;0.77;;;0.43;;
9052;SDS011;4561;47.450;7.516;2023-05-10T19:57:57;1.23;;;0.40;;
9052;SDS011;4561;47.450;7.516;2023-05-10T20:01:23;4.17;;;1.03;;
9052;SDS011;4561;47.450;7.516;2023-05-10T20:04:45;1.63;;;0.70;;
9052;SDS011;4561;47.450;7.516;2023-05-10T20:08:06;1.73;;;0.60;;
9052;SDS011;4561;47.450;7.516;2023-05-10T20:11:28;1.40;;;0.70;;
9052;SDS011;4561;47.450;7.516;2023-05-10T20:14:49;1.50;;;0.57;;
9052;SDS011;4561;47.450;7.516;2023-05-10T20:18:11;2.07;;;0.70;;
9052;SDS011;4561;47.450;7.516;2023-05-10T20:21:32;0.83;;;0.50;;
9052;SDS011;4561;47.450;7.516;2023-05-10T20:24:52;1.20;;;0.60;;
9052;SDS011;4561;47.450;7.516;2023-05-10T20:28:13;0.57;;;0.57;;
9052;SDS011;4561;47.450;7.516;2023-05-10T20:31:33;1.80;;;0.67;;
9052;SDS011;4561;47.450;7.516;2023-05-10T20:34:54;1.40;;;0.60;;
9052;SDS011;4561;47.450;7.516;2023-05-10T20:38:14;1.70;;;0.60;;
9052;SDS011;4561;47.450;7.516;2023-05-10T20:41:35;1.30;;;0.70;;
9052;SDS011;4561;47.450;7.516;2023-05-10T20:44:58;3.23;;;0.77;;
9052;SDS011;4561;47.450;7.516;2023-05-10T20:48:18;1.27;;;0.80;;
9052;SDS011;4561;47.450;7.516;2023-05-10T20:51:42;0.80;;;0.63;;
9052;SDS011;4561;47.450;7.516;2023-05-10T20:55:03;1.77;;;0.60;;
9052;SDS011;4561;47.450;7.516;2023-05-10T20:58:23;1.20;;;0.60;;
9052;SDS011;4561;47.450;7.516;2023-05-10T21:01:47;0.87;;;0.50;;
9052;SDS011;4561;47.450;7.516;2023-05-10T21:05:10;2.87;;;0.60;;
9052;SDS011;4561;47.450;7.516;2023-05-10T21:08:32;0.97;;;0.50;;
9052;SDS011;4561;47.450;7.516;2023-05-10T21:11:53;0.87;;;0.50;;
9052;SDS011;4561;47.450;7.516;2023-05-10T21:15:13;1.50;;;0.50;;
9052;SDS011;4561;47.450;7.516;2023-05-10T21:18:34;0.93;;;0.50;;
9052;SDS011;4561;47.450;7.516;2023-05-10T21:21:54;0.60;;;0.60;;